sensor_id;sensor_type;location;lat;lon;timestamp;P1;durP1;ratioP1;P2;durP2;ratioP2
11771;SDS011;12556;55.748;13.194;2023-03-01T00:01:01;22.80;;;14.70;;
11771;SDS011;12556;55.748;13.194;2023-03-01T00:03:29;19.93;;;14.13;;
11771;SDS011;12556;55.748;13.194;2023-03-01T00:05:56;19.53;;;14.07;;
11771;SDS011;12556;55.748;13.194;2023-03-01T00:08:25;16.30;;;12.53;;
11771;SDS011;12556;55.748;13.194;2023-03-01T00:10:59;22.10;;;13.77;;
11771;SDS011;12556;55.748;13.194;2023-03-01T00:13:27;19.63;;;13.80;;
11771;SDS011;12556;55.748;13.194;2023-03-01T00:15:54;21.60;;;14.73;;
11771;SDS011;12556;55.748;13.194;2023-03-01T00:18:21;18.40;;;13.30;;
11771;SDS011;12556;55.748;13.194;2023-03-01T00:20:51;20.17;;;13.53;;
11771;SDS011;12556;55.748;13.194;2023-03-01T00:23:20;19.67;;;13.83;;
11771;SDS011;12556;55.748;13.194;2023-03-01T00:25:48;21.70;;;14.13;;
11771;SDS011;12556;55.748;13.194;2023-03-01T00:28:16;19.00;;;14.30;;
11771;SDS011;12556;55.748;13.194;2023-03-01T00:30:43;19.53;;;13.77;;
11771;SDS011;12556;55.748;13.194;2023-03-01T00:33:10;14.33;;;12.03;;
11771;SDS011;12556;55.748;13.194;2023-03-01T00:35:37;18.13;;;13.37;;
11771;SDS011;12556;55.748;13.194;2023-03-01T00:38:05;19.10;;;13.00;;
11771;SDS011;12556;55.748;13.194;2023-03-01T00:40:32;18.30;;;13.57;;
11771;SDS011;12556;55.748;13.194;2023-03-01T00:43:01;17.70;;;13.23;;
11771;SDS011;12556;55.748;13.194;2023-03-01T00:45:29;18.80;;;13.30;;
11771;SDS011;12556;55.748;13.194;2023-03-01T00:47:56;19.37;;;13.03;;
11771;SDS011;12556;55.748;13.194;2023-03-01T00:50:23;19.30;;;13.17;;
11771;SDS011;12556;55.748;13.194;2023-03-01T00:52:51;18.40;;;13.17;;
11771;SDS011;12556;55.748;13.194;2023-03-01T00:55:19;16.93;;;13.53;;
11771;SDS011;12556;55.748;13.194;2023-03-01T00:57:45;22.30;;;13.27;;
11771;SDS011;12556;55.748;13.194;2023-03-01T01:00:14;17.50;;;13.50;;
11771;SDS011;12556;55.748;13.194;2023-03-01T01:02:41;15.87;;;12.53;;
11771;SDS011;12556;55.748;13.194;2023-03-01T01:05:08;19.73;;;12.77;;
11771;SDS011;12556;55.748;13.194;2023-03-01T01:07:36;16.10;;;12.07;;
11771;SDS011;12556;55.748;13.194;2023-03-01T01:10:03;19.03;;;13.27;;
11771;SDS011;12556;55.748;13.194;2023-03-01T01:12:30;18.93;;;12.77;;
11771;SDS011;12556;55.748;13.194;2023-03-01T01:14:58;18.67;;;12.93;;
11771;SDS011;12556;55.748;13.194;2023-03-01T01:17:26;17.20;;;13.13;;
11771;SDS011;12556;55.748;13.194;2023-03-01T01:19:53;21.27;;;12.57;;
11771;SDS011;12556;55.748;13.194;2023-03-01T01:22:20;16.43;;;12.60;;
11771;SDS011;12556;55.748;13.194;2023-03-01T01:24:47;17.37;;;11.80;;
11771;SDS011;12556;55.748;13.194;2023-03-01T01:27:13;18.70;;;12.60;;
11771;SDS011;12556;55.748;13.194;2023-03-01T01:29:40;17.83;;;12.93;;
11771;SDS011;12556;55.748;13.194;2023-03-01T01:32:08;20.57;;;14.23;;
11771;SDS011;12556;55.748;13.194;2023-03-01T01:34:36;19.53;;;14.73;;
11771;SDS011;12556;55.748;13.194;2023-03-01T01:37:03;17.30;;;13.53;;
11771;SDS011;12556;55.748;13.194;2023-03-01T01:39:32;19.07;;;13.93;;
11771;SDS011;12556;55.748;13.194;2023-03-01T01:41:59;17.10;;;13.47;;
11771;SDS011;12556;55.748;13.194;2023-03-01T01:44:27;20.53;;;14.43;;
11771;SDS011;12556;55.748;13.194;2023-03-01T01:46:55;20.57;;;13.67;;
11771;SDS011;12556;55.748;13.194;2023-03-01T01:49:29;20.33;;;13.63;;
11771;SDS011;12556;55.748;13.194;2023-03-01T01:52:03;20.90;;;13.93;;
11771;SDS011;12556;55.748;13.194;2023-03-01T01:54:37;17.53;;;13.87;;
11771;SDS011;12556;55.748;13.194;2023-03-01T01:57:09;18.90;;;13.67;;
11771;SDS011;12556;55.748;13.194;2023-03-01T01:59:39;20.87;;;14.30;;
11771;SDS011;12556;55.748;13.194;2023-03-01T02:02:11;20.17;;;13.93;;
11771;SDS011;12556;55.748;13.194;2023-03-01T02:04:38;22.10;;;13.73;;
11771;SDS011;12556;55.748;13.194;2023-03-01T02:07:09;22.67;;;14.57;;
11771;SDS011;12556;55.748;13.194;2023-03-01T02:09:41;21.47;;;13.70;;
11771;SDS011;12556;55.748;13.194;2023-03-01T02:12:11;20.87;;;15.27;;
11771;SDS011;12556;55.748;13.194;2023-03-01T02:14:40;19.03;;;13.73;;
11771;SDS011;12556;55.748;13.194;2023-03-01T02:17:07;19.03;;;13.43;;
11771;SDS011;12556;55.748;13.194;2023-03-01T02:19:39;19.50;;;13.40;;
11771;SDS011;12556;55.748;13.194;2023-03-01T02:22:16;21.77;;;14.17;;
11771;SDS011;12556;55.748;13.194;2023-03-01T02:24:49;19.37;;;13.47;;
11771;SDS011;12556;55.748;13.194;2023-03-01T02:27:26;17.93;;;13.27;;
11771;SDS011;12556;55.748;13.194;2023-03-01T02:30:00;19.17;;;13.43;;
11771;SDS011;12556;55.748;13.194;2023-03-01T02:32:27;21.67;;;14.20;;
11771;SDS011;12556;55.748;13.194;2023-03-01T02:34:53;21.73;;;15.67;;
11771;SDS011;12556;55.748;13.194;2023-03-01T02:37:23;25.20;;;16.70;;
11771;SDS011;12556;55.748;13.194;2023-03-01T02:39:53;26.93;;;17.77;;
11771;SDS011;12556;55.748;13.194;2023-03-01T02:42:26;58.17;;;20.57;;
11771;SDS011;12556;55.748;13.194;2023-03-01T02:44:56;38.13;;;21.90;;
11771;SDS011;12556;55.748;13.194;2023-03-01T02:47:24;39.17;;;20.80;;
11771;SDS011;12556;55.748;13.194;2023-03-01T02:49:51;35.23;;;20.70;;
11771;SDS011;12556;55.748;13.194;2023-03-01T02:52:34;35.23;;;20.50;;
11771;SDS011;12556;55.748;13.194;2023-03-01T02:55:10;30.57;;;18.23;;
11771;SDS011;12556;55.748;13.194;2023-03-01T02:57:39;26.80;;;16.90;;
11771;SDS011;12556;55.748;13.194;2023-03-01T03:00:10;28.13;;;17.10;;
11771;SDS011;12556;55.748;13.194;2023-03-01T03:02:45;27.93;;;16.67;;
11771;SDS011;12556;55.748;13.194;2023-03-01T03:05:14;32.10;;;16.67;;
11771;SDS011;12556;55.748;13.194;2023-03-01T03:07:43;69.40;;;18.80;;
11771;SDS011;12556;55.748;13.194;2023-03-01T03:10:12;29.53;;;15.50;;
11771;SDS011;12556;55.748;13.194;2023-03-01T03:12:41;37.77;;;16.60;;
11771;SDS011;12556;55.748;13.194;2023-03-01T03:15:09;26.30;;;16.00;;
11771;SDS011;12556;55.748;13.194;2023-03-01T03:17:38;31.33;;;16.23;;
11771;SDS011;12556;55.748;13.194;2023-03-01T03:20:08;27.87;;;18.03;;
11771;SDS011;12556;55.748;13.194;2023-03-01T03:22:37;35.43;;;17.30;;
11771;SDS011;12556;55.748;13.194;2023-03-01T03:25:04;27.43;;;17.23;;
11771;SDS011;12556;55.748;13.194;2023-03-01T03:27:35;24.27;;;16.00;;
11771;SDS011;12556;55.748;13.194;2023-03-01T03:30:02;26.60;;;16.33;;
11771;SDS011;12556;55.748;13.194;2023-03-01T03:32:34;27.90;;;17.10;;
11771;SDS011;12556;55.748;13.194;2023-03-01T03:35:01;25.83;;;16.37;;
11771;SDS011;12556;55.748;13.194;2023-03-01T03:37:35;20.83;;;14.70;;
11771;SDS011;12556;55.748;13.194;2023-03-01T03:40:19;26.50;;;16.27;;
11771;SDS011;12556;55.748;13.194;2023-03-01T03:42:46;27.43;;;16.40;;
11771;SDS011;12556;55.748;13.194;2023-03-01T03:45:14;23.53;;;15.37;;
11771;SDS011;12556;55.748;13.194;2023-03-01T03:47:41;27.47;;;17.47;;
11771;SDS011;12556;55.748;13.194;2023-03-01T03:50:08;28.10;;;17.00;;
11771;SDS011;12556;55.748;13.194;2023-03-01T03:52:37;27.27;;;16.13;;
11771;SDS011;12556;55.748;13.194;2023-03-01T03:55:05;26.03;;;15.63;;
11771;SDS011;12556;55.748;13.194;2023-03-01T03:57:35;25.80;;;16.23;;
11771;SDS011;12556;55.748;13.194;2023-03-01T04:00:03;18.77;;;13.20;;
11771;SDS011;12556;55.748;13.194;2023-03-01T04:02:37;21.53;;;13.97;;
11771;SDS011;12556;55.748;13.194;2023-03-01T04:05:05;19.23;;;13.43;;
11771;SDS011;12556;55.748;13.194;2023-03-01T04:07:33;79.63;;;17.33;;
11771;SDS011;12556;55.748;13.194;2023-03-01T04:10:01;22.43;;;13.17;;
11771;SDS011;12556;55.748;13.194;2023-03-01T04:12:28;26.40;;;14.87;;
11771;SDS011;12556;55.748;13.194;2023-03-01T04:14:55;29.43;;;15.00;;
11771;SDS011;12556;55.748;13.194;2023-03-01T04:17:23;22.73;;;13.40;;
11771;SDS011;12556;55.748;13.194;2023-03-01T04:19:50;20.20;;;12.67;;
11771;SDS011;12556;55.748;13.194;2023-03-01T04:22:16;33.40;;;14.33;;
11771;SDS011;12556;55.748;13.194;2023-03-01T04:24:43;17.87;;;12.13;;
11771;SDS011;12556;55.748;13.194;2023-03-01T04:27:12;30.43;;;12.67;;
11771;SDS011;12556;55.748;13.194;2023-03-01T04:29:39;31.47;;;12.80;;
11771;SDS011;12556;55.748;13.194;2023-03-01T04:32:06;34.93;;;11.00;;
11771;SDS011;12556;55.748;13.194;2023-03-01T04:34:33;15.40;;;9.63;;
11771;SDS011;12556;55.748;13.194;2023-03-01T04:37:00;16.53;;;10.67;;
11771;SDS011;12556;55.748;13.194;2023-03-01T04:39:27;13.40;;;9.80;;
11771;SDS011;12556;55.748;13.194;2023-03-01T04:41:54;15.43;;;10.03;;
11771;SDS011;12556;55.748;13.194;2023-03-01T04:44:22;24.10;;;11.93;;
11771;SDS011;12556;55.748;13.194;2023-03-01T04:46:49;28.93;;;11.37;;
11771;SDS011;12556;55.748;13.194;2023-03-01T04:49:16;26.37;;;10.33;;
11771;SDS011;12556;55.748;13.194;2023-03-01T04:51:43;23.20;;;9.90;;
11771;SDS011;12556;55.748;13.194;2023-03-01T04:54:09;45.83;;;10.57;;
11771;SDS011;12556;55.748;13.194;2023-03-01T04:56:36;14.63;;;8.97;;
11771;SDS011;12556;55.748;13.194;2023-03-01T04:59:03;18.27;;;9.53;;
11771;SDS011;12556;55.748;13.194;2023-03-01T05:01:32;24.67;;;8.77;;
11771;SDS011;12556;55.748;13.194;2023-03-01T05:04:00;11.80;;;8.60;;
11771;SDS011;12556;55.748;13.194;2023-03-01T05:06:30;21.30;;;10.90;;
11771;SDS011;12556;55.748;13.194;2023-03-01T05:08:58;19.20;;;9.97;;
11771;SDS011;12556;55.748;13.194;2023-03-01T05:11:24;16.10;;;9.80;;
11771;SDS011;12556;55.748;13.194;2023-03-01T05:13:53;37.70;;;12.87;;
11771;SDS011;12556;55.748;13.194;2023-03-01T05:16:20;21.17;;;10.30;;
11771;SDS011;12556;55.748;13.194;2023-03-01T05:18:48;16.50;;;9.97;;
11771;SDS011;12556;55.748;13.194;2023-03-01T05:21:16;16.97;;;10.20;;
11771;SDS011;12556;55.748;13.194;2023-03-01T05:23:43;13.77;;;9.50;;
11771;SDS011;12556;55.748;13.194;2023-03-01T05:26:11;15.33;;;10.17;;
11771;SDS011;12556;55.748;13.194;2023-03-01T05:28:39;18.23;;;12.00;;
11771;SDS011;12556;55.748;13.194;2023-03-01T05:31:06;18.30;;;10.63;;
11771;SDS011;12556;55.748;13.194;2023-03-01T05:33:35;18.27;;;11.27;;
11771;SDS011;12556;55.748;13.194;2023-03-01T05:36:04;15.23;;;10.10;;
11771;SDS011;12556;55.748;13.194;2023-03-01T05:38:32;17.00;;;10.60;;
11771;SDS011;12556;55.748;13.194;2023-03-01T05:40:59;16.90;;;11.77;;
11771;SDS011;12556;55.748;13.194;2023-03-01T05:43:29;16.70;;;11.07;;
11771;SDS011;12556;55.748;13.194;2023-03-01T05:45:59;24.13;;;11.97;;
11771;SDS011;12556;55.748;13.194;2023-03-01T05:48:25;15.93;;;10.80;;
11771;SDS011;12556;55.748;13.194;2023-03-01T05:50:52;19.53;;;10.23;;
11771;SDS011;12556;55.748;13.194;2023-03-01T05:53:21;18.00;;;11.17;;
11771;SDS011;12556;55.748;13.194;2023-03-01T05:55:47;33.17;;;11.30;;
11771;SDS011;12556;55.748;13.194;2023-03-01T05:58:15;31.97;;;11.40;;
11771;SDS011;12556;55.748;13.194;2023-03-01T06:00:44;33.73;;;11.07;;
11771;SDS011;12556;55.748;13.194;2023-03-01T06:03:13;15.63;;;10.10;;
11771;SDS011;12556;55.748;13.194;2023-03-01T06:05:41;16.13;;;9.73;;
11771;SDS011;12556;55.748;13.194;2023-03-01T06:08:09;36.33;;;11.30;;
11771;SDS011;12556;55.748;13.194;2023-03-01T06:10:38;42.53;;;12.17;;
11771;SDS011;12556;55.748;13.194;2023-03-01T06:13:05;28.33;;;10.03;;
11771;SDS011;12556;55.748;13.194;2023-03-01T06:15:32;36.63;;;12.07;;
11771;SDS011;12556;55.748;13.194;2023-03-01T06:17:59;28.07;;;9.87;;
11771;SDS011;12556;55.748;13.194;2023-03-01T06:20:26;33.77;;;11.83;;
11771;SDS011;12556;55.748;13.194;2023-03-01T06:22:55;18.40;;;9.47;;
11771;SDS011;12556;55.748;13.194;2023-03-01T06:25:23;32.87;;;9.60;;
11771;SDS011;12556;55.748;13.194;2023-03-01T06:27:52;25.07;;;9.73;;
11771;SDS011;12556;55.748;13.194;2023-03-01T06:30:20;14.93;;;8.40;;
11771;SDS011;12556;55.748;13.194;2023-03-01T06:32:48;24.67;;;9.37;;
11771;SDS011;12556;55.748;13.194;2023-03-01T06:35:15;17.43;;;9.07;;
11771;SDS011;12556;55.748;13.194;2023-03-01T06:37:43;24.73;;;9.17;;
11771;SDS011;12556;55.748;13.194;2023-03-01T06:40:10;29.70;;;8.20;;
11771;SDS011;12556;55.748;13.194;2023-03-01T06:42:39;39.50;;;9.70;;
11771;SDS011;12556;55.748;13.194;2023-03-01T06:45:10;34.50;;;9.13;;
11771;SDS011;12556;55.748;13.194;2023-03-01T06:47:37;45.83;;;9.37;;
11771;SDS011;12556;55.748;13.194;2023-03-01T06:50:04;57.13;;;10.77;;
11771;SDS011;12556;55.748;13.194;2023-03-01T06:52:32;51.53;;;9.37;;
11771;SDS011;12556;55.748;13.194;2023-03-01T06:54:59;29.23;;;8.47;;
11771;SDS011;12556;55.748;13.194;2023-03-01T06:57:26;37.83;;;9.10;;
11771;SDS011;12556;55.748;13.194;2023-03-01T06:59:54;29.20;;;9.23;;
11771;SDS011;12556;55.748;13.194;2023-03-01T07:02:22;31.97;;;8.90;;
11771;SDS011;12556;55.748;13.194;2023-03-01T07:04:49;42.43;;;7.60;;
11771;SDS011;12556;55.748;13.194;2023-03-01T07:07:17;36.47;;;9.10;;
11771;SDS011;12556;55.748;13.194;2023-03-01T07:09:45;28.27;;;8.83;;
11771;SDS011;12556;55.748;13.194;2023-03-01T07:12:12;16.23;;;7.77;;
11771;SDS011;12556;55.748;13.194;2023-03-01T07:14:39;26.00;;;8.53;;
11771;SDS011;12556;55.748;13.194;2023-03-01T07:17:06;18.47;;;7.23;;
11771;SDS011;12556;55.748;13.194;2023-03-01T07:19:34;20.80;;;7.77;;
11771;SDS011;12556;55.748;13.194;2023-03-01T07:22:02;24.30;;;8.37;;
11771;SDS011;12556;55.748;13.194;2023-03-01T07:24:32;9.87;;;6.40;;
11771;SDS011;12556;55.748;13.194;2023-03-01T07:26:59;9.47;;;6.20;;
11771;SDS011;12556;55.748;13.194;2023-03-01T07:29:26;34.53;;;9.03;;
11771;SDS011;12556;55.748;13.194;2023-03-01T07:31:54;14.03;;;7.27;;
11771;SDS011;12556;55.748;13.194;2023-03-01T07:34:21;10.07;;;6.33;;
11771;SDS011;12556;55.748;13.194;2023-03-01T07:36:49;15.87;;;7.13;;
11771;SDS011;12556;55.748;13.194;2023-03-01T07:39:16;19.83;;;7.03;;
11771;SDS011;12556;55.748;13.194;2023-03-01T07:41:43;13.77;;;6.90;;
11771;SDS011;12556;55.748;13.194;2023-03-01T07:44:10;15.00;;;6.67;;
11771;SDS011;12556;55.748;13.194;2023-03-01T07:46:37;41.33;;;7.47;;
11771;SDS011;12556;55.748;13.194;2023-03-01T07:49:03;17.17;;;7.23;;
11771;SDS011;12556;55.748;13.194;2023-03-01T07:51:30;9.40;;;6.10;;
11771;SDS011;12556;55.748;13.194;2023-03-01T07:53:59;21.40;;;7.23;;
11771;SDS011;12556;55.748;13.194;2023-03-01T07:56:25;9.30;;;6.23;;
11771;SDS011;12556;55.748;13.194;2023-03-01T07:58:52;13.07;;;6.53;;
11771;SDS011;12556;55.748;13.194;2023-03-01T08:01:20;15.33;;;6.00;;
11771;SDS011;12556;55.748;13.194;2023-03-01T08:03:47;20.07;;;7.17;;
11771;SDS011;12556;55.748;13.194;2023-03-01T08:06:15;11.60;;;6.00;;
11771;SDS011;12556;55.748;13.194;2023-03-01T08:08:43;13.13;;;6.40;;
11771;SDS011;12556;55.748;13.194;2023-03-01T08:11:12;8.80;;;5.73;;
11771;SDS011;12556;55.748;13.194;2023-03-01T08:13:39;8.27;;;5.80;;
11771;SDS011;12556;55.748;13.194;2023-03-01T08:16:07;7.33;;;5.50;;
11771;SDS011;12556;55.748;13.194;2023-03-01T08:18:36;9.90;;;5.10;;
11771;SDS011;12556;55.748;13.194;2023-03-01T08:21:04;6.87;;;4.80;;
11771;SDS011;12556;55.748;13.194;2023-03-01T08:23:31;6.00;;;4.60;;
11771;SDS011;12556;55.748;13.194;2023-03-01T08:26:05;8.33;;;5.70;;
11771;SDS011;12556;55.748;13.194;2023-03-01T08:28:35;8.17;;;5.57;;
11771;SDS011;12556;55.748;13.194;2023-03-01T08:31:02;7.57;;;6.10;;
11771;SDS011;12556;55.748;13.194;2023-03-01T08:33:38;8.30;;;6.17;;
11771;SDS011;12556;55.748;13.194;2023-03-01T08:36:06;5.67;;;4.90;;
11771;SDS011;12556;55.748;13.194;2023-03-01T08:38:33;6.40;;;5.50;;
11771;SDS011;12556;55.748;13.194;2023-03-01T08:41:00;9.83;;;8.57;;
11771;SDS011;12556;55.748;13.194;2023-03-01T08:43:27;7.63;;;6.70;;
11771;SDS011;12556;55.748;13.194;2023-03-01T08:45:55;7.63;;;6.83;;
11771;SDS011;12556;55.748;13.194;2023-03-01T08:48:22;6.20;;;5.23;;
11771;SDS011;12556;55.748;13.194;2023-03-01T08:50:49;7.30;;;6.03;;
11771;SDS011;12556;55.748;13.194;2023-03-01T08:53:16;6.17;;;5.23;;
11771;SDS011;12556;55.748;13.194;2023-03-01T08:55:43;6.90;;;4.70;;
11771;SDS011;12556;55.748;13.194;2023-03-01T08:58:10;7.30;;;5.50;;
11771;SDS011;12556;55.748;13.194;2023-03-01T09:00:37;8.23;;;5.70;;
11771;SDS011;12556;55.748;13.194;2023-03-01T09:03:06;6.80;;;5.80;;
11771;SDS011;12556;55.748;13.194;2023-03-01T09:05:34;8.33;;;5.37;;
11771;SDS011;12556;55.748;13.194;2023-03-01T09:08:01;6.93;;;6.07;;
11771;SDS011;12556;55.748;13.194;2023-03-01T09:10:28;6.93;;;5.83;;
11771;SDS011;12556;55.748;13.194;2023-03-01T09:12:55;6.77;;;5.60;;
11771;SDS011;12556;55.748;13.194;2023-03-01T09:15:22;8.50;;;6.10;;
11771;SDS011;12556;55.748;13.194;2023-03-01T09:17:49;5.53;;;4.93;;
11771;SDS011;12556;55.748;13.194;2023-03-01T09:20:18;5.97;;;5.37;;
11771;SDS011;12556;55.748;13.194;2023-03-01T09:22:45;5.70;;;5.00;;
11771;SDS011;12556;55.748;13.194;2023-03-01T09:25:12;5.20;;;4.60;;
11771;SDS011;12556;55.748;13.194;2023-03-01T09:27:39;5.20;;;4.60;;
11771;SDS011;12556;55.748;13.194;2023-03-01T09:30:06;5.23;;;4.73;;
11771;SDS011;12556;55.748;13.194;2023-03-01T09:32:34;5.30;;;4.37;;
11771;SDS011;12556;55.748;13.194;2023-03-01T09:35:01;6.23;;;4.90;;
11771;SDS011;12556;55.748;13.194;2023-03-01T09:37:33;5.10;;;4.60;;
11771;SDS011;12556;55.748;13.194;2023-03-01T09:40:03;4.67;;;4.27;;
11771;SDS011;12556;55.748;13.194;2023-03-01T09:42:31;5.00;;;4.33;;
11771;SDS011;12556;55.748;13.194;2023-03-01T09:45:00;4.50;;;4.10;;
11771;SDS011;12556;55.748;13.194;2023-03-01T09:47:30;5.40;;;4.80;;
11771;SDS011;12556;55.748;13.194;2023-03-01T09:50:02;6.97;;;4.37;;
11771;SDS011;12556;55.748;13.194;2023-03-01T09:52:36;4.63;;;3.50;;
11771;SDS011;12556;55.748;13.194;2023-03-01T09:55:08;4.90;;;4.40;;
11771;SDS011;12556;55.748;13.194;2023-03-01T09:57:40;4.57;;;4.17;;
11771;SDS011;12556;55.748;13.194;2023-03-01T10:00:16;4.30;;;3.67;;
11771;SDS011;12556;55.748;13.194;2023-03-01T10:02:57;4.10;;;3.70;;
11771;SDS011;12556;55.748;13.194;2023-03-01T10:05:31;5.40;;;4.90;;
11771;SDS011;12556;55.748;13.194;2023-03-01T10:08:18;4.50;;;3.80;;
11771;SDS011;12556;55.748;13.194;2023-03-01T10:10:56;5.37;;;4.03;;
11771;SDS011;12556;55.748;13.194;2023-03-01T10:13:23;4.20;;;3.80;;
11771;SDS011;12556;55.748;13.194;2023-03-01T10:15:56;5.13;;;3.90;;
11771;SDS011;12556;55.748;13.194;2023-03-01T10:18:28;4.47;;;4.07;;
11771;SDS011;12556;55.748;13.194;2023-03-01T10:20:58;5.00;;;4.43;;
11771;SDS011;12556;55.748;13.194;2023-03-01T10:23:30;5.17;;;3.97;;
11771;SDS011;12556;55.748;13.194;2023-03-01T10:26:05;5.23;;;4.00;;
11771;SDS011;12556;55.748;13.194;2023-03-01T10:28:40;4.73;;;4.00;;
11771;SDS011;12556;55.748;13.194;2023-03-01T10:31:18;5.57;;;4.93;;
11771;SDS011;12556;55.748;13.194;2023-03-01T10:33:53;4.90;;;4.13;;
11771;SDS011;12556;55.748;13.194;2023-03-01T10:36:21;4.63;;;4.13;;
11771;SDS011;12556;55.748;13.194;2023-03-01T10:38:51;5.50;;;4.17;;
11771;SDS011;12556;55.748;13.194;2023-03-01T10:41:19;4.63;;;4.17;;
11771;SDS011;12556;55.748;13.194;2023-03-01T10:43:49;4.97;;;3.77;;
11771;SDS011;12556;55.748;13.194;2023-03-01T10:46:22;4.63;;;4.23;;
11771;SDS011;12556;55.748;13.194;2023-03-01T10:49:04;4.40;;;3.80;;
11771;SDS011;12556;55.748;13.194;2023-03-01T10:51:33;4.90;;;4.30;;
11771;SDS011;12556;55.748;13.194;2023-03-01T10:54:01;4.80;;;4.10;;
11771;SDS011;12556;55.748;13.194;2023-03-01T10:56:30;4.47;;;3.90;;
11771;SDS011;12556;55.748;13.194;2023-03-01T10:59:19;4.63;;;4.17;;
11771;SDS011;12556;55.748;13.194;2023-03-01T11:02:01;4.80;;;4.10;;
11771;SDS011;12556;55.748;13.194;2023-03-01T11:04:30;5.03;;;4.10;;
11771;SDS011;12556;55.748;13.194;2023-03-01T11:06:58;4.63;;;4.03;;
11771;SDS011;12556;55.748;13.194;2023-03-01T11:09:30;4.50;;;3.93;;
11771;SDS011;12556;55.748;13.194;2023-03-01T11:12:03;6.30;;;3.40;;
11771;SDS011;12556;55.748;13.194;2023-03-01T11:14:32;3.83;;;3.43;;
11771;SDS011;12556;55.748;13.194;2023-03-01T11:17:03;3.10;;;2.57;;
11771;SDS011;12556;55.748;13.194;2023-03-01T11:19:32;3.53;;;3.23;;
11771;SDS011;12556;55.748;13.194;2023-03-01T11:22:00;4.63;;;2.87;;
11771;SDS011;12556;55.748;13.194;2023-03-01T11:24:33;4.63;;;3.03;;
11771;SDS011;12556;55.748;13.194;2023-03-01T11:27:07;2.80;;;2.20;;
11771;SDS011;12556;55.748;13.194;2023-03-01T11:29:42;2.53;;;2.33;;
11771;SDS011;12556;55.748;13.194;2023-03-01T11:32:16;2.63;;;2.43;;
11771;SDS011;12556;55.748;13.194;2023-03-01T11:34:47;4.03;;;2.43;;
11771;SDS011;12556;55.748;13.194;2023-03-01T11:37:21;3.10;;;2.47;;
11771;SDS011;12556;55.748;13.194;2023-03-01T11:39:58;4.83;;;2.83;;
11771;SDS011;12556;55.748;13.194;2023-03-01T11:42:42;2.67;;;2.37;;
11771;SDS011;12556;55.748;13.194;2023-03-01T11:45:14;2.20;;;1.97;;
11771;SDS011;12556;55.748;13.194;2023-03-01T11:47:48;3.40;;;2.00;;
11771;SDS011;12556;55.748;13.194;2023-03-01T11:50:41;2.97;;;2.00;;
11771;SDS011;12556;55.748;13.194;2023-03-01T11:53:19;4.10;;;1.90;;
11771;SDS011;12556;55.748;13.194;2023-03-01T11:56:01;2.10;;;1.90;;
11771;SDS011;12556;55.748;13.194;2023-03-01T11:58:37;2.07;;;1.77;;
11771;SDS011;12556;55.748;13.194;2023-03-01T12:04:32;2.93;;;1.77;;
11771;SDS011;12556;55.748;13.194;2023-03-01T12:07:26;2.33;;;2.13;;
11771;SDS011;12556;55.748;13.194;2023-03-01T12:10:23;1.80;;;1.70;;
11771;SDS011;12556;55.748;13.194;2023-03-01T12:13:17;3.60;;;1.67;;
11771;SDS011;12556;55.748;13.194;2023-03-01T12:16:05;2.13;;;1.40;;
11771;SDS011;12556;55.748;13.194;2023-03-01T12:18:48;1.40;;;1.30;;
11771;SDS011;12556;55.748;13.194;2023-03-01T12:21:45;2.37;;;1.60;;
11771;SDS011;12556;55.748;13.194;2023-03-01T12:24:31;1.43;;;1.33;;
11771;SDS011;12556;55.748;13.194;2023-03-01T12:27:26;4.23;;;1.53;;
11771;SDS011;12556;55.748;13.194;2023-03-01T12:30:18;1.50;;;1.40;;
11771;SDS011;12556;55.748;13.194;2023-03-01T12:32:56;2.20;;;1.30;;
11771;SDS011;12556;55.748;13.194;2023-03-01T12:35:36;1.50;;;1.40;;
11771;SDS011;12556;55.748;13.194;2023-03-01T12:38:31;3.07;;;1.27;;
11771;SDS011;12556;55.748;13.194;2023-03-01T12:41:05;3.13;;;1.30;;
11771;SDS011;12556;55.748;13.194;2023-03-01T12:43:48;2.20;;;1.27;;
11771;SDS011;12556;55.748;13.194;2023-03-01T12:46:27;1.53;;;1.43;;
11771;SDS011;12556;55.748;13.194;2023-03-01T12:49:05;1.40;;;1.30;;
11771;SDS011;12556;55.748;13.194;2023-03-01T12:51:36;2.27;;;1.40;;
11771;SDS011;12556;55.748;13.194;2023-03-01T12:54:06;5.17;;;1.40;;
11771;SDS011;12556;55.748;13.194;2023-03-01T12:56:40;2.70;;;1.50;;
11771;SDS011;12556;55.748;13.194;2023-03-01T12:59:12;2.50;;;1.30;;
11771;SDS011;12556;55.748;13.194;2023-03-01T13:01:48;1.40;;;1.10;;
11771;SDS011;12556;55.748;13.194;2023-03-01T13:04:31;2.03;;;1.20;;
11771;SDS011;12556;55.748;13.194;2023-03-01T13:09:58;1.50;;;1.40;;
11771;SDS011;12556;55.748;13.194;2023-03-01T13:12:50;1.73;;;1.40;;
11771;SDS011;12556;55.748;13.194;2023-03-01T13:15:26;1.87;;;0.90;;
11771;SDS011;12556;55.748;13.194;2023-03-01T13:17:58;3.37;;;1.37;;
11771;SDS011;12556;55.748;13.194;2023-03-01T13:20:27;2.17;;;0.90;;
11771;SDS011;12556;55.748;13.194;2023-03-01T13:23:01;1.17;;;1.07;;
11771;SDS011;12556;55.748;13.194;2023-03-01T13:25:30;1.37;;;1.03;;
11771;SDS011;12556;55.748;13.194;2023-03-01T13:30:53;1.07;;;0.97;;
11771;SDS011;12556;55.748;13.194;2023-03-01T13:33:38;1.93;;;1.30;;
11771;SDS011;12556;55.748;13.194;2023-03-01T13:36:07;1.10;;;1.00;;
11771;SDS011;12556;55.748;13.194;2023-03-01T13:38:45;11.53;;;1.23;;
11771;SDS011;12556;55.748;13.194;2023-03-01T13:41:13;3.73;;;1.20;;
11771;SDS011;12556;55.748;13.194;2023-03-01T13:43:41;1.97;;;0.93;;
11771;SDS011;12556;55.748;13.194;2023-03-01T13:46:10;1.87;;;1.30;;
11771;SDS011;12556;55.748;13.194;2023-03-01T13:48:44;1.70;;;1.07;;
11771;SDS011;12556;55.748;13.194;2023-03-01T13:51:14;2.43;;;1.10;;
11771;SDS011;12556;55.748;13.194;2023-03-01T13:53:42;1.10;;;1.00;;
11771;SDS011;12556;55.748;13.194;2023-03-01T13:56:12;1.27;;;1.17;;
11771;SDS011;12556;55.748;13.194;2023-03-01T13:58:47;1.07;;;1.00;;
11771;SDS011;12556;55.748;13.194;2023-03-01T14:01:23;2.30;;;1.03;;
11771;SDS011;12556;55.748;13.194;2023-03-01T14:03:54;4.17;;;1.20;;
11771;SDS011;12556;55.748;13.194;2023-03-01T14:06:23;1.63;;;1.00;;
11771;SDS011;12556;55.748;13.194;2023-03-01T14:08:52;1.10;;;1.00;;
11771;SDS011;12556;55.748;13.194;2023-03-01T14:14:44;0.77;;;0.77;;
11771;SDS011;12556;55.748;13.194;2023-03-01T14:17:18;2.93;;;1.20;;
11771;SDS011;12556;55.748;13.194;2023-03-01T14:19:56;2.47;;;1.10;;
11771;SDS011;12556;55.748;13.194;2023-03-01T14:22:25;3.33;;;1.30;;
11771;SDS011;12556;55.748;13.194;2023-03-01T14:24:55;1.70;;;1.10;;
11771;SDS011;12556;55.748;13.194;2023-03-01T14:27:25;1.20;;;1.03;;
11771;SDS011;12556;55.748;13.194;2023-03-01T14:29:55;1.00;;;0.90;;
11771;SDS011;12556;55.748;13.194;2023-03-01T14:32:24;1.53;;;0.93;;
11771;SDS011;12556;55.748;13.194;2023-03-01T14:34:52;1.30;;;1.10;;
11771;SDS011;12556;55.748;13.194;2023-03-01T14:37:22;1.20;;;1.10;;
11771;SDS011;12556;55.748;13.194;2023-03-01T14:39:50;2.30;;;1.20;;
11771;SDS011;12556;55.748;13.194;2023-03-01T14:42:17;2.37;;;1.07;;
11771;SDS011;12556;55.748;13.194;2023-03-01T14:44:46;1.00;;;1.00;;
11771;SDS011;12556;55.748;13.194;2023-03-01T14:47:16;1.37;;;1.20;;
11771;SDS011;12556;55.748;13.194;2023-03-01T14:49:51;1.57;;;1.27;;
11771;SDS011;12556;55.748;13.194;2023-03-01T14:52:25;1.70;;;1.30;;